Time;durP1;ratioP1;P1;durP2;ratioP2;P2;SDS_P1;SDS_P2;PMS_P1;PMS_P2;Temp;Humidity;BMP_temperature;BMP_pressure;BME280_temperature;BME280_humidity;BME280_pressure;Samples;Min_cycle;Max_cycle;Signal;HPM_P1;HPM_P2
2023/07/12 16:53:48;;;;;;;;;;;;;;;;;;5031117;28;6614;-90
2023/07/12 16:56:17;;;;;;;;;;;;;;;;;;5026464;28;7070;-87
2023/07/12 16:58:42;;;;;;;;;;;;;;;;;;5026810;28;7699;-86
2023/07/12 17:01:12;;;;;;;;;;;;;;;;;;5026342;28;7109;-88
2023/07/12 17:03:43;;;;;;;;;;;;;;;;;;5025980;28;7073;-88
2023/07/12 17:06:10;;;;;;;;;;;;;;;;;;5025889;28;7205;-88
2023/07/12 17:08:37;;;;;;;;;;;;;;;;;;5025770;28;8821;-89
2023/07/12 17:11:02;;;;;;;;;;;;;;;;;;5025703;28;7287;-86
2023/07/12 17:13:28;;;;;;;;;;;;;;;;;;5026036;28;7090;-86
2023/07/12 17:15:54;;;;;;;;;;;;;;;;;;5025890;28;8462;-89
2023/07/12 17:18:20;;;;;;;;;;;;;;;;;;5026231;28;8758;-87
2023/07/12 17:20:47;;;;;;;;;;;;;;;;;;5026063;28;7239;-89
2023/07/12 17:23:15;;;;;;;;;;;;;;;;;;5025475;28;9167;-87
2023/07/12 17:25:45;;;;;;;;;;;;;;;;;;5025418;28;7285;-88
2023/07/12 17:28:14;;;;;;;;;;;;;;;;;;5025796;28;7215;-88
2023/07/12 17:30:40;;;;;;;;;;;;;;;;;;5025686;28;8444;-88
2023/07/12 17:33:08;;;;;;;;;;;;;;;;;;5025806;28;8449;-88
2023/07/12 17:35:34;;;;;;;;;;;;;;;;;;5025367;28;8380;-87
2023/07/12 17:38:01;;;;;;;;;;;;;;;;;;5025895;28;7437;-88
2023/07/12 17:40:28;;;;;;;;;;;;;;;;;;5025554;28;8428;-87
2023/07/12 17:42:53;;;;;;;;;;;;;;;;;;5025104;28;7194;-87
2023/07/12 17:45:19;;;;;;;;;;;;;;;;;;5025231;28;8752;-87
2023/07/12 17:47:45;;;;;;;;;;;;;;;;;;5019866;28;8066;-90
2023/07/12 17:50:10;;;;;;;;;;;;;;;;;;5016606;28;8888;-87
2023/07/12 17:52:36;;;;;;;;;;;;;;;;;;5021680;28;7245;-88
2023/07/12 17:55:01;;;;;;;;;;;;;;;;;;5021893;28;8356;-88
2023/07/12 17:57:27;;;;;;;;;;;;;;;;;;5025203;28;7186;-89
2023/07/12 17:59:53;;;;;;;;;;;;;;;;;;5027767;28;9006;-89
2023/07/12 18:02:25;;;;;;;;;;;;;;;;;;5024019;28;7111;-87
2023/07/12 18:04:51;;;;;;;;;;;;;;;;;;4994582;28;7175;-87
2023/07/12 18:07:22;;;;;;;;;;;;;;;;;;4992008;28;7195;-89
2023/07/12 18:09:50;;;;;;;;;;;;;;;;;;4992372;28;8764;-88
2023/07/12 18:12:17;;;;;;;;;;;;;;;;;;4991790;28;7214;-87
2023/07/12 18:14:42;;;;;;;;;;;;;;;;;;4992224;28;8486;-83
2023/07/12 18:17:15;;;;;;;;;;;;;;;;;;4992584;28;8331;-85
2023/07/12 18:19:42;;;;;;;;;;;;;;;;;;5007277;28;8624;-87
2023/07/12 18:22:12;;;;;;;;;;;;;;;;;;5011283;28;8726;-83
2023/07/12 18:24:38;;;;;;;;;;;;;;;;;;5011836;28;8919;-91
2023/07/12 18:27:04;;;;;;;;;;;;;;;;;;5011136;28;8902;-85
2023/07/12 18:29:29;;;;;;;;;;;;;;;;;;5011336;28;8606;-89
2023/07/12 18:31:54;;;;;;;;;;;;;;;;;;5011384;28;8668;-89
2023/07/12 18:34:20;;;;;;;;;;;;;;;;;;5011517;28;8772;-91
2023/07/12 18:36:48;;;;;;;;;;;;;;;;;;5011178;28;7275;-88
2023/07/12 18:39:15;;;;;;;;;;;;;;;;;;5010301;28;8369;-88
2023/07/12 18:41:41;;;;;;;;;;;;;;;;;;5010729;28;8496;-88
2023/07/12 18:44:10;;;;;;;;;;;;;;;;;;4995945;28;8812;-89
2023/07/12 18:46:36;;;;;;;;;;;;;;;;;;4991183;28;8469;-89
2023/07/12 18:49:02;;;;;;;;;;;;;;;;;;4996878;28;7136;-89
2023/07/12 18:51:34;;;;;;;;;;;;;;;;;;5011683;28;8385;-88
2023/07/12 18:54:00;;;;;;;;;;;;;;;;;;5014485;28;8436;-88
2023/07/12 18:56:29;;;;;;;;;;;;;;;;;;5013925;28;8465;-87
2023/07/12 18:58:56;;;;;;;;;;;;;;;;;;5025652;28;7125;-87
2023/07/12 19:01:23;;;;;;;;;;;;;;;;;;4994455;28;8803;-83
2023/07/12 19:03:49;;;;;;;;;;;;;;;;;;4994302;28;7205;-83
2023/07/12 19:06:17;;;;;;;;;;;;;;;;;;4993659;28;8761;-84
2023/07/12 19:08:44;;;;;;;;;;;;;;;;;;4979485;28;7039;-83
2023/07/12 19:11:22;;;;;;;;;;;;;;;;;;5010056;28;7483;-83
2023/07/12 19:13:50;;;;;;;;;;;;;;;;;;5015116;28;9048;-84
2023/07/12 19:16:17;;;;;;;;;;;;;;;;;;4991317;28;8884;-80
2023/07/12 19:18:42;;;;;;;;;;;;;;;;;;5029960;28;8500;-82
2023/07/12 19:21:29;;;;;;;;;;;;;;;;;;5031217;28;7279;-84
2023/07/12 19:23:56;;;;;;;;;;;;;;;;;;4997010;28;8324;-85
2023/07/12 19:26:23;;;;;;;;;;;;;;;;;;5030240;28;8927;-83
2023/07/12 19:28:50;;;;;;;;;;;;;;;;;;5029707;28;9026;-84
2023/07/12 19:31:21;;;;;;;;;;;;;;;;;;5030813;28;7202;-85
2023/07/12 19:33:49;;;;;;;;;;;;;;;;;;5013888;28;7255;-84
2023/07/12 19:36:15;;;;;;;;;;;;;;;;;;5030727;28;8474;-82
2023/07/12 19:38:40;;;;;;;;;;;;;;;;;;5030246;28;7196;-81
2023/07/12 19:41:11;;;;;;;;;;;;;;;;;;5038287;28;8473;-76
2023/07/12 19:43:38;;;;;;;;;;;;;;;;;;5032192;28;8410;-81
2023/07/12 19:46:03;;;;;;;;;;;;;;;;;;5030025;28;8767;-84
2023/07/12 19:48:29;;;;;;;;;;;;;;;;;;5031174;28;7047;-83
2023/07/12 19:50:55;;;;;;;;;;;;;;;;;;5013643;28;8525;-83
2023/07/12 19:53:23;;;;;;;;;;;;;;;;;;5029559;28;8695;-84
2023/07/12 19:55:48;;;;;;;;;;;;;;;;;;5030149;28;8752;-82
2023/07/12 19:58:15;;;;;;;;;;;;;;;;;;5029912;28;8504;-81
2023/07/12 20:00:41;;;;;;;;;;;;;;;;;;5016845;28;7118;-82
2023/07/12 20:03:12;;;;;;;;;;;;;;;;;;4994188;28;7164;-81
2023/07/12 20:05:37;;;;;;;;;;;;;;;;;;4976691;28;8616;-80
2023/07/12 20:08:04;;;;;;;;;;;;;;;;;;4977287;28;7224;-81
2023/07/12 20:10:29;;;;;;;;;;;;;;;;;;4993207;28;8513;-82
2023/07/12 20:12:55;;;;;;;;;;;;;;;;;;4976894;28;7140;-83
2023/07/12 20:15:20;;;;;;;;;;;;;;;;;;4977865;28;7207;-83
2023/07/12 20:17:46;;;;;;;;;;;;;;;;;;4993421;28;8463;-84
2023/07/12 20:20:13;;;;;;;;;;;;;;;;;;4992713;28;7013;-85
2023/07/12 20:22:38;;;;;;;;;;;;;;;;;;4993594;28;8766;-81
2023/07/12 20:25:04;;;;;;;;;;;;;;;;;;4993009;28;7025;-83
2023/07/12 20:27:31;;;;;;;;;;;;;;;;;;4992535;28;7078;-82
2023/07/12 20:29:57;;;;;;;;;;;;;;;;;;4992812;28;7194;-80
2023/07/12 20:32:23;;;;;;;;;;;;;;;;;;4994450;28;7193;-83
2023/07/12 20:34:48;;;;;;;;;;;;;;;;;;5013849;28;8463;-76
2023/07/12 20:37:14;;;;;;;;;;;;;;;;;;5013367;28;7357;-83
2023/07/12 20:39:39;;;;;;;;;;;;;;;;;;5012285;28;8417;-83
2023/07/12 20:42:08;;;;;;;;;;;;;;;;;;5012394;28;7034;-84
2023/07/12 20:44:34;;;;;;;;;;;;;;;;;;4995544;28;7308;-84
2023/07/12 20:47:02;;;;;;;;;;;;;;;;;;4995489;28;8466;-84
2023/07/12 20:49:30;;;;;;;;;;;;;;;;;;5012071;28;7159;-84
2023/07/12 20:52:01;;;;;;;;;;;;;;;;;;4994959;28;8347;-83
2023/07/12 20:54:27;;;;;;;;;;;;;;;;;;4995029;28;7544;-83
2023/07/12 20:56:52;;;;;;;;;;;;;;;;;;4995552;28;9312;-84
2023/07/12 20:59:18;;;;;;;;;;;;;;;;;;4995468;28;7079;-84
2023/07/12 21:01:44;;;;;;;;;;;;;;;;;;5011692;28;7244;-82
2023/07/12 21:04:10;;;;;;;;;;;;;;;;;;4995864;28;8672;-84
2023/07/12 21:06:35;;;;;;;;;;;;;;;;;;4996041;28;8463;-83
2023/07/12 21:09:05;;;;;;;;;;;;;;;;;;4995856;28;8492;-83
2023/07/12 21:11:31;;;;;;;;;;;;;;;;;;4996259;28;7135;-81
2023/07/12 21:13:57;;;;;;;;;;;;;;;;;;4995697;28;7188;-84
2023/07/12 21:16:23;;;;;;;;;;;;;;;;;;4995401;28;7197;-83
2023/07/12 21:18:51;;;;;;;;;;;;;;;;;;4995783;28;7195;-83
2023/07/12 21:21:17;;;;;;;;;;;;;;;;;;4995498;28;8447;-80
2023/07/12 21:23:43;;;;;;;;;;;;;;;;;;4995669;28;8356;-83
2023/07/12 21:26:08;;;;;;;;;;;;;;;;;;4995722;28;8873;-82
2023/07/12 21:28:35;;;;;;;;;;;;;;;;;;4995617;28;8316;-83
2023/07/12 21:31:02;;;;;;;;;;;;;;;;;;4995609;28;7290;-84
2023/07/12 21:33:28;;;;;;;;;;;;;;;;;;4995407;28;7216;-83
2023/07/12 21:35:55;;;;;;;;;;;;;;;;;;4996042;28;8828;-81
2023/07/12 21:38:22;;;;;;;;;;;;;;;;;;4996102;28;7126;-83
2023/07/12 21:40:48;;;;;;;;;;;;;;;;;;4999558;28;7441;-83
2023/07/12 21:43:15;;;;;;;;;;;;;;;;;;4999297;28;7086;-81
2023/07/12 21:45:42;;;;;;;;;;;;;;;;;;4999174;28;7150;-83
2023/07/12 21:48:08;;;;;;;;;;;;;;;;;;4999244;28;7097;-84
2023/07/12 21:50:35;;;;;;;;;;;;;;;;;;4999104;28;7174;-84
2023/07/12 21:53:00;;;;;;;;;;;;;;;;;;4998736;28;8681;-83
2023/07/12 21:55:26;;;;;;;;;;;;;;;;;;4999276;28;8715;-81
2023/07/12 21:57:52;;;;;;;;;;;;;;;;;;4999378;28;7095;-80
2023/07/12 22:00:21;;;;;;;;;;;;;;;;;;4998882;28;8557;-81
2023/07/12 22:02:47;;;;;;;;;;;;;;;;;;5006361;28;7230;-85
2023/07/12 22:05:13;;;;;;;;;;;;;;;;;;4998693;28;7139;-83
2023/07/12 22:07:39;;;;;;;;;;;;;;;;;;4998744;28;8426;-83
2023/07/12 22:10:15;;;;;;;;;;;;;;;;;;4998790;28;7189;-84
2023/07/12 22:12:41;;;;;;;;;;;;;;;;;;4999333;28;7053;-82
2023/07/12 22:15:09;;;;;;;;;;;;;;;;;;4998971;28;7177;-83
2023/07/12 22:17:34;;;;;;;;;;;;;;;;;;4998695;28;8418;-82
2023/07/12 22:20:00;;;;;;;;;;;;;;;;;;4998486;28;9101;-83
2023/07/12 22:22:26;;;;;;;;;;;;;;;;;;4998619;28;8537;-82
2023/07/12 22:24:51;;;;;;;;;;;;;;;;;;4998317;28;7412;-84
2023/07/12 22:27:17;;;;;;;;;;;;;;;;;;4998614;28;8479;-83
2023/07/12 22:29:43;;;;;;;;;;;;;;;;;;4998512;28;8454;-83
2023/07/12 22:32:08;;;;;;;;;;;;;;;;;;4998210;28;8464;-83
2023/07/12 22:34:34;;;;;;;;;;;;;;;;;;4998462;28;7402;-82
2023/07/12 22:36:59;;;;;;;;;;;;;;;;;;4998034;28;8475;-82
2023/07/12 22:39:28;;;;;;;;;;;;;;;;;;4998200;28;8383;-80
2023/07/12 22:41:54;;;;;;;;;;;;;;;;;;4997998;28;8805;-81
2023/07/12 22:44:21;;;;;;;;;;;;;;;;;;4998112;28;8558;-82
2023/07/12 22:46:47;;;;;;;;;;;;;;;;;;4998137;28;7140;-84
2023/07/12 22:49:17;;;;;;;;;;;;;;;;;;4998204;28;7053;-83
2023/07/12 22:51:44;;;;;;;;;;;;;;;;;;4997941;28;7285;-82
2023/07/12 22:54:10;;;;;;;;;;;;;;;;;;4997731;28;7072;-79
2023/07/12 22:56:36;;;;;;;;;;;;;;;;;;4997783;28;8710;-83
2023/07/12 22:59:01;;;;;;;;;;;;;;;;;;4997576;28;8386;-81
2023/07/12 23:01:27;;;;;;;;;;;;;;;;;;4997963;28;7023;-83
2023/07/12 23:03:52;;;;;;;;;;;;;;;;;;4997763;28;8599;-81
2023/07/12 23:06:18;;;;;;;;;;;;;;;;;;4997924;28;7159;-84
2023/07/12 23:08:44;;;;;;;;;;;;;;;;;;4997357;28;8504;-83
2023/07/12 23:11:14;;;;;;;;;;;;;;;;;;4996978;28;8549;-80
2023/07/12 23:13:40;;;;;;;;;;;;;;;;;;4997567;28;8412;-80
2023/07/12 23:16:10;;;;;;;;;;;;;;;;;;4997332;28;8442;-83
2023/07/12 23:18:38;;;;;;;;;;;;;;;;;;4997687;28;8422;-81
2023/07/12 23:21:09;;;;;;;;;;;;;;;;;;4997091;28;7195;-80
2023/07/12 23:23:40;;;;;;;;;;;;;;;;;;4997203;28;8826;-84
2023/07/12 23:26:10;;;;;;;;;;;;;;;;;;4997411;28;8735;-83
2023/07/12 23:28:39;;;;;;;;;;;;;;;;;;4997493;28;7331;-83
2023/07/12 23:31:07;;;;;;;;;;;;;;;;;;4997722;28;7244;-82
2023/07/12 23:33:33;;;;;;;;;;;;;;;;;;4996912;28;8360;-82
2023/07/12 23:36:00;;;;;;;;;;;;;;;;;;4997305;28;7518;-83
2023/07/12 23:38:26;;;;;;;;;;;;;;;;;;4996829;28;8401;-83
2023/07/12 23:40:52;;;;;;;;;;;;;;;;;;4996966;28;7378;-80
2023/07/12 23:43:18;;;;;;;;;;;;;;;;;;4997054;28;8378;-83
2023/07/12 23:45:45;;;;;;;;;;;;;;;;;;4997936;28;8648;-82
2023/07/12 23:48:11;;;;;;;;;;;;;;;;;;4997019;28;8302;-87
2023/07/12 23:50:36;;;;;;;;;;;;;;;;;;4997074;28;7029;-88
2023/07/12 23:53:03;;;;;;;;;;;;;;;;;;4993306;28;7182;-87
2023/07/12 23:55:31;;;;;;;;;;;;;;;;;;5009905;28;7026;-86
2023/07/12 23:57:57;;;;;;;;;;;;;;;;;;5010003;28;8347;-87
